sensor_id;sensor_type;location;lat;lon;timestamp;pressure;altitude;pressure_sealevel;temperature;humidity
14232;BME280;7200;52.194;9.900;2023-04-10T00:01:04;101194.22;;;8.80;100.00
14232;BME280;7200;52.194;9.900;2023-04-10T00:03:30;101223.53;;;9.11;100.00
14232;BME280;7200;52.194;9.900;2023-04-10T00:05:56;101221.63;;;9.19;100.00
14232;BME280;7200;52.194;9.900;2023-04-10T00:08:24;101242.81;;;9.13;100.00
14232;BME280;7200;52.194;9.900;2023-04-10T00:10:50;101217.75;;;8.89;100.00
14232;BME280;7200;52.194;9.900;2023-04-10T00:13:16;101236.56;;;9.19;100.00
14232;BME280;7200;52.194;9.900;2023-04-10T00:15:42;101230.38;;;9.21;100.00
14232;BME280;7200;52.194;9.900;2023-04-10T00:18:07;101203.25;;;9.16;100.00
14232;BME280;7200;52.194;9.900;2023-04-10T00:20:32;101198.31;;;8.99;100.00
14232;BME280;7200;52.194;9.900;2023-04-10T00:22:58;101184.31;;;8.95;100.00
14232;BME280;7200;52.194;9.900;2023-04-10T00:25:23;101174.78;;;8.90;100.00
14232;BME280;7200;52.194;9.900;2023-04-10T00:27:48;101159.13;;;8.82;100.00
14232;BME280;7200;52.194;9.900;2023-04-10T00:30:14;101129.97;;;8.42;100.00
14232;BME280;7200;52.194;9.900;2023-04-10T00:32:40;101143.38;;;8.25;100.00
14232;BME280;7200;52.194;9.900;2023-04-10T00:35:06;101144.50;;;8.08;100.00
14232;BME280;7200;52.194;9.900;2023-04-10T00:37:32;101124.59;;;7.90;100.00
14232;BME280;7200;52.194;9.900;2023-04-10T00:39:57;101097.94;;;7.56;100.00
14232;BME280;7200;52.194;9.900;2023-04-10T00:42:22;101125.03;;;7.59;100.00
14232;BME280;7200;52.194;9.900;2023-04-10T00:44:48;101102.59;;;7.34;100.00
14232;BME280;7200;52.194;9.900;2023-04-10T00:47:13;101131.44;;;7.38;100.00
14232;BME280;7200;52.194;9.900;2023-04-10T00:49:39;101134.81;;;7.48;100.00
14232;BME280;7200;52.194;9.900;2023-04-10T00:52:06;101137.38;;;7.51;100.00
14232;BME280;7200;52.194;9.900;2023-04-10T00:54:32;101127.81;;;7.46;100.00
14232;BME280;7200;52.194;9.900;2023-04-10T00:56:58;101116.91;;;7.07;100.00
14232;BME280;7200;52.194;9.900;2023-04-10T00:59:24;101107.38;;;6.99;100.00
14232;BME280;7200;52.194;9.900;2023-04-10T01:01:49;101093.69;;;6.70;100.00
14232;BME280;7200;52.194;9.900;2023-04-10T01:04:15;101135.53;;;6.82;100.00
14232;BME280;7200;52.194;9.900;2023-04-10T01:09:31;101167.78;;;6.90;100.00
14232;BME280;7200;52.194;9.900;2023-04-10T01:15:24;101161.38;;;7.19;100.00
14232;BME280;7200;52.194;9.900;2023-04-10T01:17:51;101177.78;;;7.39;100.00
14232;BME280;7200;52.194;9.900;2023-04-10T01:20:26;101175.81;;;7.58;100.00
14232;BME280;7200;52.194;9.900;2023-04-10T01:23:28;101165.28;;;7.60;100.00
14232;BME280;7200;52.194;9.900;2023-04-10T01:26:03;101126.97;;;7.42;100.00
14232;BME280;7200;52.194;9.900;2023-04-10T01:31:22;101140.00;;;7.51;100.00
14232;BME280;7200;52.194;9.900;2023-04-10T01:33:51;101137.25;;;7.60;100.00
14232;BME280;7200;52.194;9.900;2023-04-10T01:36:23;101098.19;;;7.36;100.00
14232;BME280;7200;52.194;9.900;2023-04-10T01:38:52;101094.91;;;7.20;100.00
14232;BME280;7200;52.194;9.900;2023-04-10T01:41:19;101071.63;;;6.89;100.00
14232;BME280;7200;52.194;9.900;2023-04-10T01:43:48;101133.44;;;7.13;100.00
14232;BME280;7200;52.194;9.900;2023-04-10T01:46:15;101159.50;;;7.32;100.00
14232;BME280;7200;52.194;9.900;2023-04-10T01:48:42;101172.44;;;7.49;100.00
14232;BME280;7200;52.194;9.900;2023-04-10T01:51:09;101148.81;;;7.46;100.00
14232;BME280;7200;52.194;9.900;2023-04-10T01:53:36;101135.69;;;7.46;100.00
14232;BME280;7200;52.194;9.900;2023-04-10T01:56:02;101116.63;;;7.33;100.00
14232;BME280;7200;52.194;9.900;2023-04-10T01:58:29;101124.53;;;7.30;100.00
14232;BME280;7200;52.194;9.900;2023-04-10T02:00:54;101101.94;;;7.15;100.00
14232;BME280;7200;52.194;9.900;2023-04-10T02:03:19;101120.19;;;7.27;100.00
14232;BME280;7200;52.194;9.900;2023-04-10T02:05:54;101101.09;;;7.13;100.00
14232;BME280;7200;52.194;9.900;2023-04-10T02:08:30;101097.66;;;7.08;100.00
14232;BME280;7200;52.194;9.900;2023-04-10T02:11:27;101097.72;;;7.01;100.00
14232;BME280;7200;52.194;9.900;2023-04-10T02:13:59;101077.88;;;6.76;100.00
14232;BME280;7200;52.194;9.900;2023-04-10T02:16:26;101090.91;;;6.83;100.00
14232;BME280;7200;52.194;9.900;2023-04-10T02:18:54;101098.56;;;7.04;100.00
14232;BME280;7200;52.194;9.900;2023-04-10T02:21:19;101083.78;;;6.96;100.00
14232;BME280;7200;52.194;9.900;2023-04-10T02:23:45;101086.47;;;6.90;100.00
14232;BME280;7200;52.194;9.900;2023-04-10T02:26:11;101094.25;;;6.98;100.00
14232;BME280;7200;52.194;9.900;2023-04-10T02:28:37;101031.91;;;6.41;100.00
14232;BME280;7200;52.194;9.900;2023-04-10T02:31:04;101061.69;;;6.35;100.00
14232;BME280;7200;52.194;9.900;2023-04-10T02:33:29;101081.75;;;6.38;100.00
14232;BME280;7200;52.194;9.900;2023-04-10T02:35:54;101074.00;;;6.26;100.00
14232;BME280;7200;52.194;9.900;2023-04-10T02:38:20;101126.94;;;6.66;100.00
14232;BME280;7200;52.194;9.900;2023-04-10T02:40:45;101110.25;;;6.75;100.00
14232;BME280;7200;52.194;9.900;2023-04-10T02:43:11;101103.91;;;6.97;100.00
14232;BME280;7200;52.194;9.900;2023-04-10T02:45:36;101102.06;;;7.04;100.00
14232;BME280;7200;52.194;9.900;2023-04-10T02:48:04;101097.44;;;7.25;100.00
14232;BME280;7200;52.194;9.900;2023-04-10T02:50:29;101086.06;;;7.27;100.00
14232;BME280;7200;52.194;9.900;2023-04-10T02:52:56;101086.81;;;7.38;100.00
14232;BME280;7200;52.194;9.900;2023-04-10T02:55:21;101097.97;;;7.53;100.00
14232;BME280;7200;52.194;9.900;2023-04-10T02:57:47;101095.22;;;7.64;100.00
14232;BME280;7200;52.194;9.900;2023-04-10T03:00:12;101082.81;;;7.75;100.00
14232;BME280;7200;52.194;9.900;2023-04-10T03:02:38;101079.22;;;7.80;100.00
14232;BME280;7200;52.194;9.900;2023-04-10T03:05:03;101092.94;;;7.99;100.00
14232;BME280;7200;52.194;9.900;2023-04-10T03:07:28;101082.34;;;8.04;100.00
14232;BME280;7200;52.194;9.900;2023-04-10T03:09:54;101060.09;;;7.72;100.00
14232;BME280;7200;52.194;9.900;2023-04-10T03:12:19;101062.72;;;7.71;100.00
14232;BME280;7200;52.194;9.900;2023-04-10T03:14:44;101069.56;;;7.83;100.00
14232;BME280;7200;52.194;9.900;2023-04-10T03:17:10;101067.72;;;7.88;100.00
14232;BME280;7200;52.194;9.900;2023-04-10T03:19:36;101058.19;;;7.82;100.00
14232;BME280;7200;52.194;9.900;2023-04-10T03:22:01;101075.50;;;7.94;100.00
14232;BME280;7200;52.194;9.900;2023-04-10T03:24:27;101074.47;;;8.04;100.00
14232;BME280;7200;52.194;9.900;2023-04-10T03:26:53;101076.13;;;8.10;100.00
14232;BME280;7200;52.194;9.900;2023-04-10T03:29:18;101057.84;;;8.04;100.00
14232;BME280;7200;52.194;9.900;2023-04-10T03:31:44;101043.03;;;7.99;100.00
14232;BME280;7200;52.194;9.900;2023-04-10T03:34:10;101010.91;;;7.80;100.00
14232;BME280;7200;52.194;9.900;2023-04-10T03:36:35;100982.31;;;7.62;100.00
14232;BME280;7200;52.194;9.900;2023-04-10T03:39:00;100969.31;;;7.53;100.00
14232;BME280;7200;52.194;9.900;2023-04-10T03:41:26;100978.38;;;7.32;100.00
14232;BME280;7200;52.194;9.900;2023-04-10T03:43:51;100977.56;;;7.27;100.00
14232;BME280;7200;52.194;9.900;2023-04-10T03:46:16;101032.91;;;7.75;100.00
14232;BME280;7200;52.194;9.900;2023-04-10T03:48:42;101039.69;;;7.90;100.00
14232;BME280;7200;52.194;9.900;2023-04-10T03:51:07;101036.88;;;8.01;100.00
14232;BME280;7200;52.194;9.900;2023-04-10T03:53:32;101035.97;;;8.02;100.00
14232;BME280;7200;52.194;9.900;2023-04-10T03:56:00;101039.25;;;8.17;100.00
14232;BME280;7200;52.194;9.900;2023-04-10T03:58:26;101033.03;;;8.20;100.00
14232;BME280;7200;52.194;9.900;2023-04-10T04:00:51;101033.88;;;8.22;100.00
14232;BME280;7200;52.194;9.900;2023-04-10T04:03:16;101021.56;;;8.26;100.00
14232;BME280;7200;52.194;9.900;2023-04-10T04:05:42;100977.47;;;7.92;100.00
14232;BME280;7200;52.194;9.900;2023-04-10T04:08:07;100935.91;;;7.63;100.00
14232;BME280;7200;52.194;9.900;2023-04-10T04:10:32;100928.59;;;7.27;100.00
14232;BME280;7200;52.194;9.900;2023-04-10T04:12:58;100915.06;;;6.93;100.00
14232;BME280;7200;52.194;9.900;2023-04-10T04:15:23;100864.63;;;6.02;100.00
14232;BME280;7200;52.194;9.900;2023-04-10T04:17:48;100884.09;;;5.71;100.00
14232;BME280;7200;52.194;9.900;2023-04-10T04:20:13;100928.59;;;5.72;100.00
14232;BME280;7200;52.194;9.900;2023-04-10T04:22:39;100963.53;;;5.65;100.00
14232;BME280;7200;52.194;9.900;2023-04-10T04:25:06;101012.13;;;6.08;100.00
14232;BME280;7200;52.194;9.900;2023-04-10T04:27:34;101010.38;;;6.10;100.00
14232;BME280;7200;52.194;9.900;2023-04-10T04:30:00;101030.22;;;6.35;100.00
14232;BME280;7200;52.194;9.900;2023-04-10T04:32:26;101004.19;;;6.18;100.00
14232;BME280;7200;52.194;9.900;2023-04-10T04:34:52;100981.59;;;6.03;100.00
14232;BME280;7200;52.194;9.900;2023-04-10T04:37:17;101036.41;;;6.27;100.00
14232;BME280;7200;52.194;9.900;2023-04-10T04:39:42;101039.88;;;6.29;100.00
14232;BME280;7200;52.194;9.900;2023-04-10T04:42:07;101034.63;;;6.30;100.00
14232;BME280;7200;52.194;9.900;2023-04-10T04:44:33;101026.00;;;6.17;100.00
14232;BME280;7200;52.194;9.900;2023-04-10T04:46:58;101041.56;;;6.36;100.00
14232;BME280;7200;52.194;9.900;2023-04-10T04:49:23;101041.41;;;6.51;100.00
14232;BME280;7200;52.194;9.900;2023-04-10T04:51:49;101013.59;;;6.36;100.00
14232;BME280;7200;52.194;9.900;2023-04-10T04:54:14;101039.66;;;6.53;100.00
14232;BME280;7200;52.194;9.900;2023-04-10T04:56:39;101004.88;;;6.36;100.00
14232;BME280;7200;52.194;9.900;2023-04-10T04:59:05;101053.56;;;6.61;100.00
14232;BME280;7200;52.194;9.900;2023-04-10T05:01:30;101056.03;;;6.77;100.00
14232;BME280;7200;52.194;9.900;2023-04-10T05:03:55;101005.53;;;6.58;100.00
14232;BME280;7200;52.194;9.900;2023-04-10T05:06:21;100993.63;;;6.24;100.00
14232;BME280;7200;52.194;9.900;2023-04-10T05:08:46;101039.53;;;6.64;100.00
14232;BME280;7200;52.194;9.900;2023-04-10T05:11:12;101026.41;;;6.67;100.00
14232;BME280;7200;52.194;9.900;2023-04-10T05:13:37;101016.84;;;6.63;100.00
14232;BME280;7200;52.194;9.900;2023-04-10T05:16:02;101028.22;;;6.62;100.00
14232;BME280;7200;52.194;9.900;2023-04-10T05:18:27;101031.75;;;6.58;100.00
14232;BME280;7200;52.194;9.900;2023-04-10T05:20:53;101028.22;;;6.60;100.00
14232;BME280;7200;52.194;9.900;2023-04-10T05:23:18;101052.47;;;6.82;100.00
14232;BME280;7200;52.194;9.900;2023-04-10T05:25:43;101068.88;;;7.01;100.00
14232;BME280;7200;52.194;9.900;2023-04-10T05:28:09;101060.03;;;7.09;100.00
14232;BME280;7200;52.194;9.900;2023-04-10T05:30:34;101059.84;;;7.26;100.00
14232;BME280;7200;52.194;9.900;2023-04-10T05:32:59;101057.19;;;7.27;100.00
14232;BME280;7200;52.194;9.900;2023-04-10T05:35:25;101038.88;;;7.21;100.00
14232;BME280;7200;52.194;9.900;2023-04-10T05:37:50;101014.69;;;6.99;100.00
14232;BME280;7200;52.194;9.900;2023-04-10T05:40:15;101064.34;;;7.13;100.00
14232;BME280;7200;52.194;9.900;2023-04-10T05:42:41;101059.09;;;7.14;100.00
14232;BME280;7200;52.194;9.900;2023-04-10T05:45:06;101061.56;;;7.27;100.00
14232;BME280;7200;52.194;9.900;2023-04-10T05:47:31;101068.47;;;7.35;100.00
14232;BME280;7200;52.194;9.900;2023-04-10T05:49:57;101074.34;;;7.51;100.00
14232;BME280;7200;52.194;9.900;2023-04-10T05:52:22;101091.50;;;7.78;100.00
14232;BME280;7200;52.194;9.900;2023-04-10T05:54:47;101083.53;;;7.85;100.00
14232;BME280;7200;52.194;9.900;2023-04-10T05:57:12;101105.00;;;8.13;100.00
14232;BME280;7200;52.194;9.900;2023-04-10T05:59:38;101114.22;;;8.40;100.00
14232;BME280;7200;52.194;9.900;2023-04-10T06:02:03;101116.53;;;8.60;100.00
14232;BME280;7200;52.194;9.900;2023-04-10T06:04:28;101132.72;;;8.87;100.00
14232;BME280;7200;52.194;9.900;2023-04-10T06:06:54;101132.25;;;9.11;100.00
14232;BME280;7200;52.194;9.900;2023-04-10T06:09:19;101133.63;;;9.32;100.00
14232;BME280;7200;52.194;9.900;2023-04-10T06:11:44;101134.16;;;9.50;100.00
14232;BME280;7200;52.194;9.900;2023-04-10T06:14:10;101086.16;;;9.35;100.00
14232;BME280;7200;52.194;9.900;2023-04-10T06:16:35;101078.47;;;9.25;100.00
14232;BME280;7200;52.194;9.900;2023-04-10T06:19:00;101105.16;;;9.51;100.00
14232;BME280;7200;52.194;9.900;2023-04-10T06:21:26;101118.63;;;9.77;100.00
14232;BME280;7200;52.194;9.900;2023-04-10T06:23:51;101094.97;;;9.73;100.00
14232;BME280;7200;52.194;9.900;2023-04-10T06:26:16;101121.53;;;10.05;100.00
14232;BME280;7200;52.194;9.900;2023-04-10T06:28:42;101093.56;;;9.98;100.00
14232;BME280;7200;52.194;9.900;2023-04-10T06:31:07;101121.78;;;10.31;100.00
14232;BME280;7200;52.194;9.900;2023-04-10T06:33:33;101109.47;;;10.32;100.00
14232;BME280;7200;52.194;9.900;2023-04-10T06:36:01;101102.25;;;10.40;100.00
14232;BME280;7200;52.194;9.900;2023-04-10T06:38:27;101088.72;;;10.52;100.00
14232;BME280;7200;52.194;9.900;2023-04-10T06:40:53;101115.53;;;11.04;100.00
14232;BME280;7200;52.194;9.900;2023-04-10T06:43:18;101102.19;;;11.40;100.00
14232;BME280;7200;52.194;9.900;2023-04-10T06:45:44;101050.81;;;11.21;100.00
14232;BME280;7200;52.194;9.900;2023-04-10T06:48:09;101023.25;;;11.29;100.00
14232;BME280;7200;52.194;9.900;2023-04-10T06:50:35;101018.81;;;11.30;100.00
14232;BME280;7200;52.194;9.900;2023-04-10T06:53:00;101034.69;;;11.58;100.00
14232;BME280;7200;52.194;9.900;2023-04-10T06:55:25;101073.13;;;12.00;100.00
14232;BME280;7200;52.194;9.900;2023-04-10T06:57:51;101012.59;;;11.89;100.00
14232;BME280;7200;52.194;9.900;2023-04-10T07:00:17;101033.69;;;12.19;100.00
14232;BME280;7200;52.194;9.900;2023-04-10T07:02:43;100985.88;;;11.98;100.00
14232;BME280;7200;52.194;9.900;2023-04-10T07:05:08;100968.78;;;12.08;100.00
14232;BME280;7200;52.194;9.900;2023-04-10T07:07:33;100983.44;;;12.44;100.00
14232;BME280;7200;52.194;9.900;2023-04-10T07:09:59;101032.94;;;12.91;100.00
14232;BME280;7200;52.194;9.900;2023-04-10T07:12:24;101003.13;;;13.33;100.00
14232;BME280;7200;52.194;9.900;2023-04-10T07:14:50;100977.16;;;13.19;100.00
14232;BME280;7200;52.194;9.900;2023-04-10T07:17:15;100917.19;;;12.94;100.00
14232;BME280;7200;52.194;9.900;2023-04-10T07:19:41;100917.44;;;13.10;100.00
14232;BME280;7200;52.194;9.900;2023-04-10T07:22:06;100899.63;;;13.14;100.00
14232;BME280;7200;52.194;9.900;2023-04-10T07:24:32;100892.09;;;13.69;100.00
14232;BME280;7200;52.194;9.900;2023-04-10T07:26:57;100873.34;;;13.74;100.00
14232;BME280;7200;52.194;9.900;2023-04-10T07:29:22;100862.09;;;13.89;100.00
14232;BME280;7200;52.194;9.900;2023-04-10T07:31:48;100877.09;;;13.90;100.00
14232;BME280;7200;52.194;9.900;2023-04-10T07:34:13;100872.22;;;14.00;100.00
14232;BME280;7200;52.194;9.900;2023-04-10T07:36:38;100872.63;;;13.91;100.00
14232;BME280;7200;52.194;9.900;2023-04-10T07:39:04;100852.50;;;14.26;100.00
14232;BME280;7200;52.194;9.900;2023-04-10T07:41:29;100891.56;;;14.43;100.00
14232;BME280;7200;52.194;9.900;2023-04-10T07:43:55;100822.91;;;14.35;100.00
14232;BME280;7200;52.194;9.900;2023-04-10T07:46:20;100848.44;;;14.38;100.00
14232;BME280;7200;52.194;9.900;2023-04-10T07:48:45;100815.97;;;14.12;100.00
14232;BME280;7200;52.194;9.900;2023-04-10T07:51:12;100863.66;;;14.53;100.00
14232;BME280;7200;52.194;9.900;2023-04-10T07:53:37;100808.25;;;14.46;100.00
14232;BME280;7200;52.194;9.900;2023-04-10T07:56:02;100806.81;;;14.38;100.00
14232;BME280;7200;52.194;9.900;2023-04-10T07:58:28;100766.06;;;14.20;100.00
14232;BME280;7200;52.194;9.900;2023-04-10T08:00:53;100835.06;;;14.79;100.00
14232;BME280;7200;52.194;9.900;2023-04-10T08:03:19;100813.72;;;14.62;100.00
14232;BME280;7200;52.194;9.900;2023-04-10T08:05:44;100816.22;;;14.84;100.00
14232;BME280;7200;52.194;9.900;2023-04-10T08:08:09;100805.06;;;14.77;100.00
14232;BME280;7200;52.194;9.900;2023-04-10T08:10:36;100816.28;;;14.82;100.00
14232;BME280;7200;52.194;9.900;2023-04-10T08:13:02;100773.88;;;14.43;100.00
14232;BME280;7200;52.194;9.900;2023-04-10T08:15:27;100828.97;;;14.58;100.00
14232;BME280;7200;52.194;9.900;2023-04-10T08:17:53;100827.59;;;14.68;100.00
14232;BME280;7200;52.194;9.900;2023-04-10T08:20:18;100845.38;;;14.85;100.00
14232;BME280;7200;52.194;9.900;2023-04-10T08:22:43;100864.97;;;15.02;100.00
14232;BME280;7200;52.194;9.900;2023-04-10T08:25:09;100826.06;;;14.82;100.00
14232;BME280;7200;52.194;9.900;2023-04-10T08:27:34;100832.66;;;15.11;100.00
14232;BME280;7200;52.194;9.900;2023-04-10T08:29:59;100847.38;;;15.35;100.00
14232;BME280;7200;52.194;9.900;2023-04-10T08:32:26;100810.22;;;15.16;100.00
14232;BME280;7200;52.194;9.900;2023-04-10T08:34:52;100849.16;;;15.35;100.00
14232;BME280;7200;52.194;9.900;2023-04-10T08:37:17;100855.44;;;15.69;100.00
14232;BME280;7200;52.194;9.900;2023-04-10T08:39:43;100810.75;;;15.41;100.00
14232;BME280;7200;52.194;9.900;2023-04-10T08:42:09;100823.06;;;15.26;100.00
14232;BME280;7200;52.194;9.900;2023-04-10T08:44:34;100889.75;;;15.92;100.00
14232;BME280;7200;52.194;9.900;2023-04-10T08:47:01;100879.84;;;16.29;100.00
14232;BME280;7200;52.194;9.900;2023-04-10T08:49:55;100877.75;;;16.68;99.05
14232;BME280;7200;52.194;9.900;2023-04-10T08:52:23;100776.66;;;16.01;98.86
14232;BME280;7200;52.194;9.900;2023-04-10T08:54:56;100796.91;;;16.04;99.35
14232;BME280;7200;52.194;9.900;2023-04-10T08:57:22;100802.72;;;16.44;96.76
14232;BME280;7200;52.194;9.900;2023-04-10T08:59:49;100846.66;;;16.52;98.17
14232;BME280;7200;52.194;9.900;2023-04-10T09:02:19;100854.22;;;16.60;98.78
14232;BME280;7200;52.194;9.900;2023-04-10T09:04:49;100808.84;;;16.78;96.16
14232;BME280;7200;52.194;9.900;2023-04-10T09:07:15;100814.91;;;16.97;94.98
14232;BME280;7200;52.194;9.900;2023-04-10T09:09:41;100854.50;;;17.19;96.23
14232;BME280;7200;52.194;9.900;2023-04-10T09:12:07;100794.22;;;17.01;95.03
14232;BME280;7200;52.194;9.900;2023-04-10T09:14:33;100816.22;;;17.20;93.58
14232;BME280;7200;52.194;9.900;2023-04-10T09:17:14;100719.38;;;16.73;93.69
14232;BME280;7200;52.194;9.900;2023-04-10T09:19:40;100761.16;;;16.73;93.75
14232;BME280;7200;52.194;9.900;2023-04-10T09:22:06;100792.41;;;17.17;91.92
14232;BME280;7200;52.194;9.900;2023-04-10T09:24:35;100810.81;;;17.06;93.88
14232;BME280;7200;52.194;9.900;2023-04-10T09:27:05;100801.81;;;17.08;93.13
14232;BME280;7200;52.194;9.900;2023-04-10T09:29:43;100758.88;;;17.13;90.58
14232;BME280;7200;52.194;9.900;2023-04-10T09:32:10;100696.09;;;17.07;88.39
14232;BME280;7200;52.194;9.900;2023-04-10T09:34:51;100773.03;;;17.29;92.07
14232;BME280;7200;52.194;9.900;2023-04-10T09:37:16;100781.88;;;17.30;91.44
14232;BME280;7200;52.194;9.900;2023-04-10T09:39:44;100770.59;;;17.55;90.33
14232;BME280;7200;52.194;9.900;2023-04-10T09:42:10;100716.38;;;17.55;87.49
14232;BME280;7200;52.194;9.900;2023-04-10T09:44:38;100706.47;;;17.42;87.17
14232;BME280;7200;52.194;9.900;2023-04-10T09:47:19;100776.44;;;17.76;89.19
14232;BME280;7200;52.194;9.900;2023-04-10T09:49:46;100710.47;;;17.49;88.36
14232;BME280;7200;52.194;9.900;2023-04-10T09:52:30;100659.22;;;17.59;85.48
14232;BME280;7200;52.194;9.900;2023-04-10T09:54:57;100680.84;;;17.68;83.91
14232;BME280;7200;52.194;9.900;2023-04-10T09:57:25;100716.69;;;17.93;84.35
14232;BME280;7200;52.194;9.900;2023-04-10T09:59:53;100674.78;;;17.95;82.09
14232;BME280;7200;52.194;9.900;2023-04-10T10:02:21;100694.31;;;17.96;83.58
14232;BME280;7200;52.194;9.900;2023-04-10T10:04:47;100665.78;;;17.82;82.35
14232;BME280;7200;52.194;9.900;2023-04-10T10:07:17;100619.78;;;17.78;80.72
14232;BME280;7200;52.194;9.900;2023-04-10T10:09:45;100621.25;;;18.11;79.75
14232;BME280;7200;52.194;9.900;2023-04-10T10:12:12;100680.47;;;18.18;81.19
14232;BME280;7200;52.194;9.900;2023-04-10T10:14:53;100792.22;;;18.24;86.11
14232;BME280;7200;52.194;9.900;2023-04-10T10:17:23;100719.38;;;17.93;86.07
14232;BME280;7200;52.194;9.900;2023-04-10T10:20:01;100665.44;;;17.88;85.01
14232;BME280;7200;52.194;9.900;2023-04-10T10:22:27;100712.25;;;17.94;85.81
14232;BME280;7200;52.194;9.900;2023-04-10T10:24:53;100655.97;;;18.11;82.21
14232;BME280;7200;52.194;9.900;2023-04-10T10:27:22;100665.03;;;18.08;82.30
14232;BME280;7200;52.194;9.900;2023-04-10T10:29:48;100671.97;;;18.25;81.84
14232;BME280;7200;52.194;9.900;2023-04-10T10:32:16;100641.69;;;17.98;82.35
14232;BME280;7200;52.194;9.900;2023-04-10T10:34:41;100618.78;;;17.79;82.02
14232;BME280;7200;52.194;9.900;2023-04-10T10:37:08;100664.38;;;17.90;83.16
14232;BME280;7200;52.194;9.900;2023-04-10T10:42:37;100670.97;;;17.99;83.43
14232;BME280;7200;52.194;9.900;2023-04-10T10:45:11;100636.44;;;17.96;82.74
14232;BME280;7200;52.194;9.900;2023-04-10T10:47:53;100642.59;;;18.11;82.91
14232;BME280;7200;52.194;9.900;2023-04-10T10:50:19;100570.31;;;18.14;79.34
14232;BME280;7200;52.194;9.900;2023-04-10T10:52:49;100627.66;;;18.36;79.51
14232;BME280;7200;52.194;9.900;2023-04-10T10:57:48;100595.63;;;18.08;79.90
14232;BME280;7200;52.194;9.900;2023-04-10T11:00:15;100576.00;;;18.22;78.61
14232;BME280;7200;52.194;9.900;2023-04-10T11:02:40;100588.41;;;18.63;77.20
14232;BME280;7200;52.194;9.900;2023-04-10T11:05:05;100603.84;;;18.45;78.40
14232;BME280;7200;52.194;9.900;2023-04-10T11:11:00;100654.66;;;18.98;77.53
14232;BME280;7200;52.194;9.900;2023-04-10T11:13:34;100672.69;;;19.22;77.57
14232;BME280;7200;52.194;9.900;2023-04-10T11:16:01;100556.81;;;18.83;76.26
14232;BME280;7200;52.194;9.900;2023-04-10T11:21:14;100499.88;;;18.68;75.33
14232;BME280;7200;52.194;9.900;2023-04-10T11:28:59;100605.38;;;19.28;75.26
14232;BME280;7200;52.194;9.900;2023-04-10T11:31:25;100528.78;;;19.27;72.75
14232;BME280;7200;52.194;9.900;2023-04-10T11:34:05;100543.34;;;19.10;73.71
14232;BME280;7200;52.194;9.900;2023-04-10T11:36:32;100496.88;;;19.24;71.03
14232;BME280;7200;52.194;9.900;2023-04-10T11:39:03;100560.38;;;19.59;71.32
14232;BME280;7200;52.194;9.900;2023-04-10T11:41:40;100471.69;;;19.39;69.78
14232;BME280;7200;52.194;9.900;2023-04-10T11:44:11;100473.59;;;19.13;71.72
14232;BME280;7200;52.194;9.900;2023-04-10T11:46:38;100463.44;;;19.55;67.67
14232;BME280;7200;52.194;9.900;2023-04-10T11:49:05;100340.66;;;19.26;64.62
14232;BME280;7200;52.194;9.900;2023-04-10T11:51:31;100454.09;;;19.24;68.70
14232;BME280;7200;52.194;9.900;2023-04-10T11:54:08;100477.97;;;19.51;68.88
14232;BME280;7200;52.194;9.900;2023-04-10T11:56:34;100442.44;;;19.25;69.22
14232;BME280;7200;52.194;9.900;2023-04-10T11:58:59;100516.88;;;19.31;71.83
14232;BME280;7200;52.194;9.900;2023-04-10T12:01:26;100429.50;;;19.19;70.09
14232;BME280;7200;52.194;9.900;2023-04-10T12:03:52;100494.50;;;19.69;68.48
14232;BME280;7200;52.194;9.900;2023-04-10T12:06:18;100386.72;;;19.67;65.42
14232;BME280;7200;52.194;9.900;2023-04-10T12:08:46;100396.09;;;19.97;62.86
14232;BME280;7200;52.194;9.900;2023-04-10T12:11:17;100348.47;;;19.54;62.15
14232;BME280;7200;52.194;9.900;2023-04-10T12:13:44;100335.38;;;19.38;62.77
14232;BME280;7200;52.194;9.900;2023-04-10T12:16:10;100332.47;;;19.17;62.79
14232;BME280;7200;52.194;9.900;2023-04-10T12:18:36;100403.13;;;19.38;63.89
14232;BME280;7200;52.194;9.900;2023-04-10T12:21:03;100371.19;;;19.24;63.60
14232;BME280;7200;52.194;9.900;2023-04-10T12:23:29;100435.16;;;19.51;66.29
14232;BME280;7200;52.194;9.900;2023-04-10T12:26:16;100488.16;;;19.83;66.35
14232;BME280;7200;52.194;9.900;2023-04-10T12:28:51;100409.13;;;20.01;63.18
14232;BME280;7200;52.194;9.900;2023-04-10T12:31:16;100472.97;;;19.83;67.35
14232;BME280;7200;52.194;9.900;2023-04-10T12:33:45;100505.06;;;20.08;67.82
14232;BME280;7200;52.194;9.900;2023-04-10T12:36:21;100411.56;;;20.05;62.28
14232;BME280;7200;52.194;9.900;2023-04-10T12:38:47;100372.13;;;20.07;61.59
14232;BME280;7200;52.194;9.900;2023-04-10T12:41:12;100486.88;;;20.24;65.26
14232;BME280;7200;52.194;9.900;2023-04-10T12:43:39;100465.56;;;20.22;65.13
14232;BME280;7200;52.194;9.900;2023-04-10T12:46:07;100324.63;;;19.86;61.81
14232;BME280;7200;52.194;9.900;2023-04-10T12:48:33;100296.13;;;19.38;62.96
14232;BME280;7200;52.194;9.900;2023-04-10T12:50:58;100404.22;;;19.84;63.60
14232;BME280;7200;52.194;9.900;2023-04-10T12:53:24;100425.16;;;19.90;64.41
14232;BME280;7200;52.194;9.900;2023-04-10T12:56:03;100420.91;;;19.88;65.23
14232;BME280;7200;52.194;9.900;2023-04-10T12:58:29;100371.72;;;19.89;63.33
14232;BME280;7200;52.194;9.900;2023-04-10T13:01:02;100439.16;;;19.94;66.80
14232;BME280;7200;52.194;9.900;2023-04-10T13:03:28;100445.91;;;20.11;65.24
14232;BME280;7200;52.194;9.900;2023-04-10T13:05:53;100396.28;;;20.18;63.36
14232;BME280;7200;52.194;9.900;2023-04-10T13:08:19;100438.44;;;20.27;64.16
14232;BME280;7200;52.194;9.900;2023-04-10T13:10:45;100378.81;;;20.01;65.46
14232;BME280;7200;52.194;9.900;2023-04-10T13:13:10;100311.38;;;19.60;65.00
14232;BME280;7200;52.194;9.900;2023-04-10T13:15:37;100462.53;;;19.92;67.33
14232;BME280;7200;52.194;9.900;2023-04-10T13:18:03;100433.06;;;19.92;67.14
14232;BME280;7200;52.194;9.900;2023-04-10T13:20:31;100440.06;;;20.06;67.78
14232;BME280;7200;52.194;9.900;2023-04-10T13:22:56;100418.91;;;19.78;68.98